createdAt,value
2017-06-19T00:01:16.620Z,21.20
2017-06-19T00:03:43.730Z,20.70
2017-06-19T00:06:10.118Z,20.70
2017-06-19T00:08:36.498Z,21.10
2017-06-19T00:11:02.882Z,21.40
2017-06-19T00:13:29.285Z,21.20
2017-06-19T00:15:56.419Z,21.20
2017-06-19T00:18:22.802Z,21.20
2017-06-19T00:20:55.509Z,20.80
2017-06-19T00:23:28.020Z,20.80
2017-06-19T00:25:54.389Z,20.90
2017-06-19T00:28:20.763Z,20.80
2017-06-19T00:30:47.175Z,20.70
2017-06-19T00:33:13.551Z,20.70
2017-06-19T00:35:39.916Z,21.00
2017-06-19T00:38:06.291Z,20.70
2017-06-19T00:40:33.419Z,21.00
2017-06-19T00:43:00.677Z,21.00
2017-06-19T00:45:27.109Z,20.90
2017-06-19T00:47:53.518Z,21.00
2017-06-19T00:50:19.914Z,21.10
2017-06-19T00:52:46.292Z,21.10
2017-06-19T00:55:12.773Z,20.90
2017-06-19T00:57:39.915Z,20.60
2017-06-19T01:00:07.045Z,20.60
2017-06-19T01:02:34.178Z,20.60
2017-06-19T01:05:00.567Z,20.50
2017-06-19T01:07:27.809Z,20.40
2017-06-19T01:09:54.624Z,20.70
2017-06-19T01:12:21.002Z,20.90
2017-06-19T01:14:47.375Z,21.10
2017-06-19T01:17:13.755Z,20.80
2017-06-19T01:19:40.155Z,20.80
2017-06-19T01:22:06.546Z,20.50
2017-06-19T01:24:32.980Z,20.30
2017-06-19T01:26:59.338Z,19.80
2017-06-19T01:29:25.727Z,20.10
2017-06-19T01:31:52.163Z,20.10
2017-06-19T01:34:18.540Z,20.30
2017-06-19T01:36:44.965Z,20.30
2017-06-19T01:39:11.358Z,20.00
2017-06-19T01:41:37.772Z,20.00
2017-06-19T01:44:04.199Z,20.10
2017-06-19T01:46:30.631Z,20.10
2017-06-19T01:48:57.013Z,20.30
2017-06-19T01:51:23.446Z,20.50
2017-06-19T01:53:49.903Z,20.50
2017-06-19T01:56:16.306Z,20.50
2017-06-19T01:58:42.699Z,20.30
2017-06-19T02:01:09.116Z,20.30
2017-06-19T02:03:36.260Z,20.50
2017-06-19T02:06:03.502Z,20.30
2017-06-19T02:08:30.637Z,20.30
2017-06-19T02:10:57.002Z,20.30
2017-06-19T02:13:24.104Z,20.20
2017-06-19T02:15:50.473Z,20.10
2017-06-19T02:18:16.845Z,20.20
2017-06-19T02:20:43.250Z,20.00
2017-06-19T02:23:10.347Z,20.20
2017-06-19T02:25:36.732Z,20.10
2017-06-19T02:28:03.112Z,20.00
2017-06-19T02:30:29.527Z,20.00
2017-06-19T02:32:55.914Z,20.20
2017-06-19T02:35:23.036Z,20.10
2017-06-19T02:37:49.444Z,20.10
2017-06-19T02:40:15.857Z,19.90
2017-06-19T02:42:42.243Z,19.80
2017-06-19T02:45:08.615Z,19.90
2017-06-19T02:47:35.004Z,19.90
2017-06-19T02:50:01.388Z,19.90
2017-06-19T02:52:27.764Z,19.80
2017-06-19T02:54:54.153Z,19.80
2017-06-19T02:57:20.563Z,19.70
2017-06-19T02:59:47.676Z,19.20
2017-06-19T03:02:14.059Z,19.20
2017-06-19T03:04:40.480Z,19.30
2017-06-19T03:07:06.872Z,19.30
2017-06-19T03:09:33.414Z,19.50
2017-06-19T03:12:01.014Z,19.90
2017-06-19T03:14:27.419Z,19.80
2017-06-19T03:16:53.802Z,19.50
2017-06-19T03:19:20.990Z,19.40
2017-06-19T03:21:47.388Z,19.50
2017-06-19T03:24:13.813Z,19.60
2017-06-19T03:26:40.230Z,19.60
2017-06-19T03:29:06.661Z,19.70
2017-06-19T03:31:33.048Z,19.70
2017-06-19T03:34:01.208Z,19.60
2017-06-19T03:36:27.605Z,19.60
2017-06-19T03:38:54.061Z,19.10
2017-06-19T03:41:20.465Z,19.20
2017-06-19T03:43:46.879Z,19.50
2017-06-19T03:46:13.299Z,19.70
2017-06-19T03:48:40.448Z,19.30
2017-06-19T03:51:07.574Z,19.50
2017-06-19T03:53:34.731Z,19.50
2017-06-19T03:56:01.135Z,19.50
2017-06-19T03:58:27.530Z,19.40
2017-06-19T04:00:54.631Z,19.50
2017-06-19T04:03:21.058Z,19.40
2017-06-19T04:05:47.462Z,19.80
2017-06-19T04:08:13.847Z,19.60
2017-06-19T04:10:40.968Z,19.70
2017-06-19T04:13:08.170Z,19.70
2017-06-19T04:15:34.561Z,19.70
2017-06-19T04:18:01.722Z,19.80
2017-06-19T04:20:28.887Z,19.90
2017-06-19T04:22:55.470Z,19.80
2017-06-19T04:25:21.894Z,20.10
2017-06-19T04:27:48.286Z,20.10
2017-06-19T04:30:15.459Z,20.10
2017-06-19T04:32:41.830Z,20.00
2017-06-19T04:35:08.234Z,20.00
2017-06-19T04:37:34.619Z,20.10
2017-06-19T04:40:01.025Z,20.10
2017-06-19T04:42:27.407Z,20.00
2017-06-19T04:44:53.835Z,20.10
2017-06-19T04:47:20.216Z,20.10
2017-06-19T04:49:46.621Z,19.90
2017-06-19T04:52:13.071Z,19.80
2017-06-19T04:54:39.467Z,19.90
2017-06-19T04:57:05.867Z,19.90
2017-06-19T04:59:32.393Z,20.10
2017-06-19T05:01:58.959Z,20.10
2017-06-19T05:04:26.211Z,20.10
2017-06-19T05:06:52.627Z,20.00
2017-06-19T05:09:19.014Z,20.20
2017-06-19T05:11:45.494Z,20.30
2017-06-19T05:14:12.627Z,20.40
2017-06-19T05:16:39.034Z,20.40
2017-06-19T05:19:05.485Z,20.40
2017-06-19T05:21:31.867Z,20.60
2017-06-19T05:23:58.257Z,20.60
2017-06-19T05:26:24.667Z,20.70
2017-06-19T05:28:51.039Z,20.70
2017-06-19T05:31:17.402Z,20.70
2017-06-19T05:33:43.791Z,20.70
2017-06-19T05:36:10.214Z,20.80
2017-06-19T05:38:36.619Z,20.90
2017-06-19T05:41:03.037Z,20.90
2017-06-19T05:43:29.939Z,20.90
2017-06-19T05:45:57.202Z,20.80
2017-06-19T05:48:23.614Z,20.80
2017-06-19T05:50:50.052Z,20.80
2017-06-19T05:53:16.451Z,20.80
2017-06-19T05:55:42.920Z,21.00
2017-06-19T05:58:09.351Z,21.10
2017-06-19T06:00:35.779Z,21.30
2017-06-19T06:03:02.197Z,21.30
2017-06-19T06:05:28.655Z,21.60
2017-06-19T06:07:55.102Z,21.70
2017-06-19T06:10:22.243Z,21.60
2017-06-19T06:12:48.663Z,21.60
2017-06-19T06:15:15.044Z,21.50
2017-06-19T06:17:41.454Z,21.70
2017-06-19T06:20:07.867Z,21.70
2017-06-19T06:22:35.023Z,21.90
2017-06-19T06:25:01.387Z,21.80
2017-06-19T06:27:27.778Z,21.90
2017-06-19T06:29:54.153Z,22.00
2017-06-19T06:32:20.518Z,22.00
2017-06-19T06:34:46.922Z,22.00
2017-06-19T06:37:13.401Z,21.80
2017-06-19T06:39:40.571Z,21.90
2017-06-19T06:42:07.689Z,21.90
2017-06-19T06:44:34.074Z,21.90
2017-06-19T06:47:00.472Z,22.20
2017-06-19T06:49:26.891Z,22.20
2017-06-19T06:51:53.323Z,22.00
2017-06-19T06:54:19.728Z,22.40
2017-06-19T06:56:46.154Z,22.20
2017-06-19T06:59:12.610Z,22.40
2017-06-19T07:01:39.005Z,22.40
2017-06-19T07:04:05.377Z,22.30
2017-06-19T07:06:31.786Z,22.40
2017-06-19T07:08:58.339Z,22.60
2017-06-19T07:11:24.984Z,22.60
2017-06-19T07:13:51.397Z,22.60
2017-06-19T07:16:17.787Z,22.80
2017-06-19T07:18:44.921Z,22.70
2017-06-19T07:21:11.314Z,22.70
2017-06-19T07:23:37.713Z,22.80
2017-06-19T07:26:04.098Z,22.90
2017-06-19T07:28:30.498Z,23.10
2017-06-19T07:30:56.878Z,23.20
2017-06-19T07:33:23.261Z,23.20
2017-06-19T07:35:49.638Z,23.30
2017-06-19T07:38:16.778Z,23.20
2017-06-19T07:40:43.247Z,23.20
2017-06-19T07:43:09.633Z,23.30
2017-06-19T07:45:36.027Z,23.20
2017-06-19T07:48:02.523Z,23.20
2017-06-19T07:50:28.928Z,23.30
2017-06-19T07:52:56.246Z,23.40
2017-06-19T07:55:22.731Z,23.40
2017-06-19T07:57:49.128Z,23.10
2017-06-19T08:00:15.523Z,23.20
2017-06-19T08:02:42.106Z,23.30
2017-06-19T08:05:08.486Z,23.30
2017-06-19T08:07:34.887Z,23.30
2017-06-19T08:10:01.280Z,23.30
2017-06-19T08:12:27.660Z,23.40
2017-06-19T08:14:54.023Z,23.40
2017-06-19T08:17:20.453Z,23.50
2017-06-19T08:19:46.819Z,23.70
2017-06-19T08:22:13.207Z,23.70
2017-06-19T08:24:39.583Z,23.90
2017-06-19T08:27:06.034Z,24.00
2017-06-19T08:29:32.428Z,23.80
2017-06-19T08:31:58.823Z,23.90
2017-06-19T08:34:25.960Z,24.10
2017-06-19T08:36:52.363Z,24.10
2017-06-19T08:39:18.739Z,24.10
2017-06-19T08:41:45.110Z,24.40
2017-06-19T08:44:11.535Z,24.40
2017-06-19T08:46:37.910Z,24.40
2017-06-19T08:49:04.338Z,24.10
2017-06-19T08:51:30.742Z,24.10
2017-06-19T08:53:57.131Z,24.30
2017-06-19T08:56:23.511Z,24.30
2017-06-19T08:58:49.916Z,24.50
2017-06-19T09:01:16.414Z,24.80
2017-06-19T09:03:42.854Z,25.00
2017-06-19T09:06:09.238Z,25.00
2017-06-19T09:08:35.640Z,25.00
2017-06-19T09:11:02.107Z,25.00
2017-06-19T09:13:28.489Z,24.90
2017-06-19T09:15:55.897Z,25.00
2017-06-19T09:18:22.326Z,25.20
2017-06-19T09:20:48.722Z,25.30
2017-06-19T09:23:15.855Z,25.10
2017-06-19T09:25:42.273Z,25.10
2017-06-19T09:28:08.670Z,25.00
2017-06-19T09:30:35.111Z,24.80
2017-06-19T09:33:01.507Z,24.70
2017-06-19T09:35:28.659Z,24.60
2017-06-19T09:37:55.074Z,24.50
2017-06-19T09:40:22.219Z,25.00
2017-06-19T09:42:48.604Z,24.90
2017-06-19T09:45:14.998Z,25.20
2017-06-19T09:47:41.402Z,25.60
2017-06-19T09:50:08.569Z,25.90
2017-06-19T09:52:34.984Z,25.90
2017-06-19T09:55:01.397Z,25.90
2017-06-19T09:57:27.840Z,25.50
2017-06-19T09:59:54.351Z,25.30
2017-06-19T10:02:20.726Z,25.30
2017-06-19T10:04:47.120Z,25.40
2017-06-19T10:07:13.528Z,25.50
2017-06-19T10:09:39.952Z,25.60
2017-06-19T10:12:06.311Z,25.70
2017-06-19T10:14:32.707Z,25.60
2017-06-19T10:16:59.117Z,25.30
2017-06-19T10:19:25.515Z,25.50
2017-06-19T10:21:51.901Z,25.80
2017-06-19T10:24:18.318Z,26.00
2017-06-19T10:26:44.703Z,26.00
2017-06-19T10:29:11.103Z,25.80
2017-06-19T10:31:37.523Z,25.90
2017-06-19T10:34:03.980Z,25.90
2017-06-19T10:36:30.381Z,25.80
2017-06-19T10:38:57.536Z,25.40
2017-06-19T10:41:24.697Z,25.60
2017-06-19T10:43:51.092Z,25.50
2017-06-19T10:46:17.529Z,25.80
2017-06-19T10:48:44.688Z,26.20
2017-06-19T10:51:11.080Z,26.20
2017-06-19T10:53:37.501Z,26.30
2017-06-19T10:56:03.915Z,26.50
2017-06-19T10:58:30.315Z,26.70
2017-06-19T11:00:57.469Z,26.80
2017-06-19T11:03:23.870Z,26.80
2017-06-19T11:05:50.300Z,26.50
2017-06-19T11:08:16.690Z,26.00
2017-06-19T11:10:43.066Z,26.00
2017-06-19T11:13:09.491Z,25.80
2017-06-19T11:15:35.878Z,26.10
2017-06-19T11:18:02.302Z,26.40
2017-06-19T11:20:29.536Z,26.90
2017-06-19T11:22:55.954Z,26.90
2017-06-19T11:25:22.351Z,27.00
2017-06-19T11:27:48.771Z,27.20
2017-06-19T11:30:15.149Z,27.50
2017-06-19T11:32:41.517Z,27.10
2017-06-19T11:35:08.656Z,27.00
2017-06-19T11:37:35.071Z,26.90
2017-06-19T11:40:01.460Z,27.10
2017-06-19T11:42:28.203Z,27.30
2017-06-19T11:44:54.627Z,27.60
2017-06-19T11:47:21.049Z,27.80
2017-06-19T11:49:48.399Z,27.80
2017-06-19T11:52:14.826Z,27.70
2017-06-19T11:54:42.030Z,27.60
2017-06-19T11:57:08.467Z,27.60
2017-06-19T11:59:34.861Z,27.50
2017-06-19T12:02:01.275Z,27.40
2017-06-19T12:04:27.668Z,27.70
2017-06-19T12:06:54.119Z,27.70
2017-06-19T12:09:21.264Z,26.80
2017-06-19T12:11:47.668Z,26.70
2017-06-19T12:14:14.094Z,27.00
2017-06-19T12:16:40.488Z,27.00
2017-06-19T12:19:06.898Z,27.20
2017-06-19T12:21:34.056Z,27.10
2017-06-19T12:24:00.468Z,27.10
2017-06-19T12:26:26.859Z,27.50
2017-06-19T12:28:53.286Z,27.90
2017-06-19T12:31:19.689Z,28.50
2017-06-19T12:33:46.090Z,28.80
2017-06-19T12:36:12.496Z,28.70
2017-06-19T12:38:38.910Z,28.70
2017-06-19T12:41:05.335Z,28.60
2017-06-19T12:43:31.758Z,28.50
2017-06-19T12:45:58.187Z,28.50
2017-06-19T12:48:24.593Z,28.80
2017-06-19T12:50:51.018Z,28.80
2017-06-19T12:53:18.167Z,29.10
2017-06-19T12:55:44.567Z,29.00
2017-06-19T12:58:10.970Z,29.20
2017-06-19T13:00:37.349Z,29.20
2017-06-19T13:03:03.748Z,29.60
2017-06-19T13:05:30.150Z,29.50
2017-06-19T13:07:56.609Z,29.20
2017-06-19T13:10:22.993Z,29.20
2017-06-19T13:12:50.178Z,29.00
2017-06-19T13:15:16.607Z,28.90
2017-06-19T13:17:43.054Z,29.10
2017-06-19T13:20:09.478Z,29.00
2017-06-19T13:22:35.879Z,29.40
2017-06-19T13:25:02.267Z,29.90
2017-06-19T13:27:28.663Z,30.00
2017-06-19T13:29:55.100Z,30.10
2017-06-19T13:32:22.248Z,29.70
2017-06-19T13:34:48.672Z,29.60
2017-06-19T13:37:15.047Z,29.80
2017-06-19T13:39:41.427Z,30.10
2017-06-19T13:42:08.674Z,29.80
2017-06-19T13:44:35.041Z,29.70
2017-06-19T13:47:01.451Z,30.00
2017-06-19T13:49:28.580Z,29.40
2017-06-19T13:51:54.962Z,29.30
2017-06-19T13:54:22.985Z,29.20
2017-06-19T13:56:49.366Z,29.20
2017-06-19T13:59:16.151Z,29.70
2017-06-19T14:01:42.590Z,30.30
2017-06-19T14:04:08.984Z,29.70
2017-06-19T14:06:35.357Z,29.80
2017-06-19T14:09:01.762Z,29.70
2017-06-19T14:11:28.161Z,29.40
2017-06-19T14:13:54.588Z,29.40
2017-06-19T14:16:20.999Z,30.00
2017-06-19T14:18:48.159Z,31.20
2017-06-19T14:21:14.557Z,31.10
2017-06-19T14:23:40.945Z,30.80
2017-06-19T14:26:07.372Z,31.00
2017-06-19T14:28:33.754Z,30.80
2017-06-19T14:31:00.156Z,30.60
2017-06-19T14:33:26.578Z,30.70
2017-06-19T14:35:53.127Z,30.30
2017-06-19T14:38:19.517Z,30.20
2017-06-19T14:40:45.927Z,30.10
2017-06-19T14:43:19.357Z,30.70
2017-06-19T14:45:45.793Z,31.00
2017-06-19T14:48:12.181Z,32.00
2017-06-19T14:50:39.328Z,31.30
2017-06-19T14:53:05.737Z,31.20
2017-06-19T14:55:32.111Z,30.20
2017-06-19T14:57:59.258Z,28.90
2017-06-19T15:00:26.426Z,29.70
2017-06-19T15:02:52.859Z,29.60
2017-06-19T15:05:19.274Z,30.70
2017-06-19T15:07:45.728Z,32.00
2017-06-19T15:10:12.165Z,32.80
2017-06-19T15:12:38.869Z,34.00
2017-06-19T15:15:05.303Z,34.00
2017-06-19T15:17:31.711Z,34.40
2017-06-19T15:19:58.105Z,36.00
2017-06-19T15:22:30.782Z,36.90
2017-06-19T15:24:57.164Z,36.60
2017-06-19T15:27:23.576Z,37.10
2017-06-19T15:29:49.994Z,37.50
2017-06-19T15:32:16.395Z,38.40
2017-06-19T15:34:43.562Z,38.90
2017-06-19T15:37:09.964Z,38.80
2017-06-19T15:39:37.096Z,36.10
2017-06-19T15:42:03.502Z,35.90
2017-06-19T15:44:29.957Z,36.00
2017-06-19T15:46:56.824Z,37.50
2017-06-19T15:49:23.937Z,37.20
2017-06-19T15:51:50.321Z,37.20
2017-06-19T15:54:16.717Z,37.20
2017-06-19T15:56:43.144Z,36.20
2017-06-19T15:59:09.547Z,37.30
2017-06-19T16:01:35.967Z,36.80
2017-06-19T16:04:02.374Z,37.40
2017-06-19T16:06:28.786Z,37.40
2017-06-19T16:08:55.208Z,37.70
2017-06-19T16:11:21.607Z,38.50
2017-06-19T16:13:48.027Z,38.00
2017-06-19T16:16:14.450Z,38.70
2017-06-19T16:18:40.866Z,39.30
2017-06-19T16:21:07.328Z,39.80
2017-06-19T16:23:33.725Z,39.90
2017-06-19T16:26:00.233Z,39.00
2017-06-19T16:28:26.608Z,38.00
2017-06-19T16:30:53.031Z,36.90
2017-06-19T16:33:20.184Z,37.60
2017-06-19T16:35:47.325Z,37.00
2017-06-19T16:38:14.478Z,37.10
2017-06-19T16:40:41.791Z,36.10
2017-06-19T16:43:08.199Z,36.00
2017-06-19T16:45:34.655Z,37.30
2017-06-19T16:48:01.082Z,38.60
2017-06-19T16:50:27.468Z,39.40
2017-06-19T16:52:54.615Z,40.50
2017-06-19T16:55:21.022Z,40.40
2017-06-19T16:57:48.182Z,41.00
2017-06-19T17:00:15.359Z,40.00
2017-06-19T17:02:41.783Z,40.00
2017-06-19T17:05:08.905Z,40.70
2017-06-19T17:07:35.297Z,40.70
2017-06-19T17:10:01.720Z,41.60
2017-06-19T17:12:28.143Z,41.80
2017-06-19T17:14:54.527Z,42.10
2017-06-19T17:17:20.944Z,40.90
2017-06-19T17:19:47.318Z,40.80
2017-06-19T17:22:14.469Z,40.10
2017-06-19T17:24:41.598Z,40.40
2017-06-19T17:27:08.766Z,40.70
2017-06-19T17:29:35.182Z,40.60
2017-06-19T17:32:01.577Z,40.30
2017-06-19T17:34:27.994Z,40.10
2017-06-19T17:36:54.427Z,39.90
2017-06-19T17:39:20.815Z,40.30
2017-06-19T17:41:54.069Z,40.30
2017-06-19T17:44:20.485Z,39.40
2017-06-19T17:46:46.915Z,39.10
2017-06-19T17:49:13.343Z,39.10
2017-06-19T17:51:39.728Z,38.80
2017-06-19T17:54:06.889Z,36.50
2017-06-19T17:56:34.046Z,35.60
2017-06-19T17:59:00.434Z,35.50
2017-06-19T18:01:26.898Z,35.60
2017-06-19T18:03:53.323Z,35.60
2017-06-19T18:06:19.748Z,36.40
2017-06-19T18:08:46.172Z,36.60
2017-06-19T18:11:12.558Z,36.20
2017-06-19T18:13:38.936Z,36.40
2017-06-19T18:16:05.349Z,36.80
2017-06-19T18:18:31.743Z,36.80
2017-06-19T18:20:58.165Z,35.20
2017-06-19T18:23:24.681Z,34.90
2017-06-19T18:25:51.112Z,35.70
2017-06-19T18:28:17.531Z,36.20
2017-06-19T18:30:43.911Z,35.40
2017-06-19T18:33:11.086Z,34.60
2017-06-19T18:35:37.496Z,34.60
2017-06-19T18:38:04.041Z,34.50
2017-06-19T18:40:30.539Z,33.00
2017-06-19T18:42:56.964Z,33.50
2017-06-19T18:45:24.120Z,33.30
2017-06-19T18:47:50.549Z,33.20
2017-06-19T18:50:17.149Z,32.10
2017-06-19T18:52:43.622Z,32.10
2017-06-19T18:55:10.797Z,32.90
2017-06-19T18:57:37.940Z,33.00
2017-06-19T19:00:05.127Z,33.10
2017-06-19T19:02:32.037Z,33.00
2017-06-19T19:04:58.591Z,32.90
2017-06-19T19:07:25.069Z,33.10
2017-06-19T19:09:51.625Z,32.90
2017-06-19T19:12:18.815Z,31.80
2017-06-19T19:14:45.301Z,31.80
2017-06-19T19:17:11.738Z,31.30
2017-06-19T19:19:38.247Z,31.10
2017-06-19T19:22:04.678Z,30.90
2017-06-19T19:24:31.316Z,30.60
2017-06-19T19:26:57.859Z,30.60
2017-06-19T19:29:25.231Z,30.20
2017-06-19T19:31:51.827Z,30.20
2017-06-19T19:34:18.263Z,30.10
2017-06-19T19:36:44.902Z,30.00
2017-06-19T19:39:11.272Z,29.60
2017-06-19T19:41:37.889Z,29.40
2017-06-19T19:44:04.322Z,29.10
2017-06-19T19:46:30.758Z,29.20
2017-06-19T19:48:57.337Z,29.20
2017-06-19T19:51:23.847Z,28.90
2017-06-19T19:53:50.249Z,28.90
2017-06-19T19:56:16.627Z,28.70
2017-06-19T19:58:43.775Z,28.30
2017-06-19T20:01:10.166Z,28.30
2017-06-19T20:03:36.574Z,28.50
2017-06-19T20:06:02.951Z,28.20
2017-06-19T20:08:29.366Z,28.00
2017-06-19T20:10:55.736Z,27.80
2017-06-19T20:13:23.626Z,27.60
2017-06-19T20:15:49.996Z,27.60
2017-06-19T20:18:17.366Z,27.30
2017-06-19T20:20:43.759Z,27.20
2017-06-19T20:23:10.196Z,27.10
2017-06-19T20:25:36.626Z,27.00
2017-06-19T20:28:02.986Z,27.10
2017-06-19T20:30:29.698Z,27.30
2017-06-19T20:32:56.186Z,27.40
2017-06-19T20:35:22.566Z,27.30
2017-06-19T20:37:48.934Z,27.30
2017-06-19T20:40:15.314Z,27.00
2017-06-19T20:42:41.710Z,26.90
2017-06-19T20:45:08.829Z,26.80
2017-06-19T20:47:35.210Z,26.80
2017-06-19T20:50:02.367Z,26.40
2017-06-19T20:52:28.771Z,26.40
2017-06-19T20:54:55.890Z,26.60
2017-06-19T20:57:22.360Z,26.50
2017-06-19T20:59:48.722Z,26.50
2017-06-19T21:02:15.090Z,26.60
2017-06-19T21:04:41.479Z,26.50
2017-06-19T21:07:08.177Z,26.80
2017-06-19T21:09:34.619Z,26.60
2017-06-19T21:12:01.750Z,26.20
2017-06-19T21:14:28.925Z,26.20
2017-06-19T21:16:56.049Z,26.20
2017-06-19T21:19:22.431Z,26.10
2017-06-19T21:21:48.818Z,26.20
2017-06-19T21:24:15.193Z,26.40
2017-06-19T21:26:41.580Z,26.20
2017-06-19T21:29:07.952Z,26.20
2017-06-19T21:31:34.322Z,26.00
2017-06-19T21:34:00.690Z,25.90
2017-06-19T21:36:27.086Z,25.80
2017-06-19T21:38:53.455Z,25.70
2017-06-19T21:41:20.594Z,25.80
2017-06-19T21:43:46.982Z,25.70
2017-06-19T21:46:13.339Z,25.90
2017-06-19T21:48:39.713Z,25.80
2017-06-19T21:51:06.816Z,25.30
2017-06-19T21:53:33.235Z,25.30
2017-06-19T21:55:59.667Z,25.20
2017-06-19T21:58:26.031Z,25.50
2017-06-19T22:00:53.162Z,25.00
2017-06-19T22:03:20.358Z,25.00
2017-06-19T22:05:47.481Z,24.80
2017-06-19T22:08:14.614Z,24.70
2017-06-19T22:10:40.990Z,24.70
2017-06-19T22:13:08.088Z,24.80
2017-06-19T22:15:34.494Z,24.70
2017-06-19T22:18:00.862Z,24.70
2017-06-19T22:20:27.265Z,24.80
2017-06-19T22:22:57.745Z,24.60
2017-06-19T22:25:24.131Z,24.60
2017-06-19T22:27:50.482Z,24.80
2017-06-19T22:30:16.879Z,24.80
2017-06-19T22:32:43.257Z,24.80
2017-06-19T22:35:09.626Z,24.60
2017-06-19T22:37:36.006Z,24.60
2017-06-19T22:40:02.402Z,24.40
2017-06-19T22:42:28.785Z,24.40
2017-06-19T22:44:55.139Z,24.40
2017-06-19T22:47:22.270Z,24.90
2017-06-19T22:49:48.629Z,24.80
2017-06-19T22:52:15.066Z,24.50
2017-06-19T22:54:41.434Z,24.20
2017-06-19T22:57:07.791Z,24.40
2017-06-19T22:59:34.170Z,24.40
2017-06-19T23:02:00.542Z,24.00
2017-06-19T23:04:26.958Z,23.90
2017-06-19T23:06:53.310Z,23.30
2017-06-19T23:09:19.712Z,22.90
2017-06-19T23:11:46.133Z,23.10
2017-06-19T23:14:12.521Z,22.90
2017-06-19T23:16:38.887Z,22.90
2017-06-19T23:19:05.252Z,23.30
2017-06-19T23:21:31.669Z,22.90
2017-06-19T23:23:58.062Z,23.40
2017-06-19T23:26:24.448Z,23.70
2017-06-19T23:28:50.856Z,23.60
2017-06-19T23:31:17.267Z,23.60
2017-06-19T23:33:43.642Z,23.20
2017-06-19T23:36:10.012Z,23.60
2017-06-19T23:38:37.140Z,23.70
2017-06-19T23:41:03.512Z,23.60
2017-06-19T23:43:29.903Z,23.90
2017-06-19T23:45:56.272Z,23.80
2017-06-19T23:48:22.667Z,23.50
2017-06-19T23:50:49.038Z,23.60
2017-06-19T23:53:15.436Z,23.40
2017-06-19T23:55:41.792Z,23.30
2017-06-19T23:58:08.191Z,23.30
